Time;durP1;ratioP1;P1;durP2;ratioP2;P2;SDS_P1;SDS_P2;PMS_P1;PMS_P2;Temp;Humidity;BMP_temperature;BMP_pressure;BME280_temperature;BME280_humidity;BME280_pressure;Samples;Min_cycle;Max_cycle;Signal;HPM_P1;HPM_P2
2022/06/15 00:00:03;;;;;;;13.52;3.70;;;;;;;13.47;73.61;99022.47;5067423;28;19928;-69
2022/06/15 00:02:31;;;;;;;15.45;3.95;;;;;;;13.42;74.01;99032.72;5063158;28;20052;-69
2022/06/15 00:04:58;;;;;;;14.50;3.53;;;;;;;13.36;73.73;99023.81;5061621;28;20580;-69
2022/06/15 00:07:24;;;;;;;31.52;4.18;;;;;;;13.36;73.51;99026.56;5064645;28;20212;-68
2022/06/15 00:09:50;;;;;;;17.55;3.45;;;;;;;13.37;73.26;99032.88;5055925;28;20139;-73
2022/06/15 00:12:16;;;;;;;15.85;3.90;;;;;;;13.37;73.23;99038.34;5081633;28;20305;-74
2022/06/15 00:14:42;;;;;;;10.73;3.40;;;;;;;13.34;73.42;99023.31;5081392;28;20142;-74
2022/06/15 00:17:09;;;;;;;12.60;3.30;;;;;;;13.34;73.16;99037.03;5082658;28;20094;-74
2022/06/15 00:19:35;;;;;;;8.85;3.15;;;;;;;13.31;73.15;99023.94;5080181;28;20167;-74
2022/06/15 00:22:03;;;;;;;14.93;3.60;;;;;;;13.31;73.19;99034.91;5083550;28;20048;-75
2022/06/15 00:24:29;;;;;;;16.67;3.63;;;;;;;13.32;73.04;99023.59;5087189;28;20059;-74
2022/06/15 00:26:56;;;;;;;7.50;3.23;;;;;;;13.27;73.02;99028.44;5082163;28;20138;-73
2022/06/15 00:29:22;;;;;;;12.15;3.42;;;;;;;13.24;73.62;99032.59;5085258;28;20316;-74
2022/06/15 00:31:48;;;;;;;11.40;3.50;;;;;;;13.21;73.37;99033.25;5079404;28;20048;-74
2022/06/15 00:34:16;;;;;;;20.65;4.30;;;;;;;13.14;73.58;99039.16;5082668;28;20514;-74
2022/06/15 00:36:42;;;;;;;27.95;4.10;;;;;;;13.12;73.51;99035.91;5083271;28;20086;-75
2022/06/15 00:39:10;;;;;;;14.05;3.72;;;;;;;13.09;73.88;99039.25;5083262;28;20529;-74
2022/06/15 00:41:38;;;;;;;13.95;4.32;;;;;;;13.04;74.13;99040.22;5079659;28;20048;-74
2022/06/15 00:44:30;;;;;;;9.85;3.60;;;;;;;12.90;74.33;99028.47;5081501;28;20047;-74
2022/06/15 00:47:00;;;;;;;13.68;3.78;;;;;;;12.97;74.21;99050.78;5080803;28;20063;-73
2022/06/15 00:49:31;;;;;;;16.17;3.47;;;;;;;12.98;74.41;99048.88;5081146;28;20048;-74
2022/06/15 00:52:01;;;;;;;12.55;4.22;;;;;;;12.95;74.50;99044.81;5082259;28;20044;-73
2022/06/15 00:54:29;;;;;;;9.65;3.72;;;;;;;12.85;74.64;99040.34;5081505;28;20105;-74
2022/06/15 00:56:56;;;;;;;11.98;3.95;;;;;;;12.89;75.37;99052.31;5083084;28;20055;-74
2022/06/15 00:59:24;;;;;;;12.75;3.78;;;;;;;12.84;75.30;99046.13;5082177;28;20044;-73
2022/06/15 01:01:51;;;;;;;19.70;4.10;;;;;;;12.81;75.63;99044.84;5082511;28;20047;-73
2022/06/15 01:04:20;;;;;;;9.80;4.00;;;;;;;12.82;75.84;99049.22;5080139;28;20090;-74
2022/06/15 01:06:53;;;;;;;15.73;4.28;;;;;;;12.78;76.19;99059.16;5084954;28;20067;-73
2022/06/15 01:09:21;;;;;;;13.60;4.28;;;;;;;12.71;76.28;99050.53;5080508;28;20127;-69
2022/06/15 01:12:03;;;;;;;14.13;4.20;;;;;;;12.72;76.72;99052.16;5081159;28;20583;-69
2022/06/15 01:14:52;;;;;;;15.18;4.70;;;;;;;12.72;76.69;99055.72;5063818;28;20070;-69
2022/06/15 01:17:33;;;;;;;11.75;3.75;;;;;;;12.72;76.73;99049.41;5056142;28;20047;-72
2022/06/15 01:20:20;;;;;;;14.55;4.63;;;;;;;12.66;76.84;99054.19;5078069;28;20059;-69
2022/06/15 01:22:55;;;;;;;;;;;;;;;12.61;77.51;99043.34;5063388;28;20215;-69
2022/06/15 01:25:40;;;;;;;19.17;4.50;;;;;;;12.55;77.38;99045.38;5061680;28;19924;-70
2022/06/15 01:28:38;;;;;;;12.90;4.55;;;;;;;12.54;77.77;99048.41;5061507;28;20056;-69
2022/06/15 01:31:16;;;;;;;12.30;4.50;;;;;;;12.53;77.56;99042.16;5062630;28;20052;-69
2022/06/15 01:33:51;;;;;;;16.50;4.78;;;;;;;12.54;77.38;99053.91;5083319;28;20144;-69
2022/06/15 01:36:24;;;;;;;13.85;4.03;;;;;;;12.51;77.32;99051.78;5080767;28;20052;-69
2022/06/15 01:38:56;;;;;;;16.80;4.50;;;;;;;12.53;77.17;99055.03;5076242;28;20044;-68
2022/06/15 01:41:28;;;;;;;16.55;4.85;;;;;;;12.54;76.71;99054.72;5081786;28;20044;-70
2022/06/15 01:43:59;;;;;;;22.50;5.20;;;;;;;12.57;76.02;99054.13;5079363;28;20642;-69
2022/06/15 01:46:29;;;;;;;16.83;4.72;;;;;;;12.58;75.71;99047.50;5064226;28;20109;-69
2022/06/15 01:48:58;;;;;;;16.70;4.60;;;;;;;12.54;76.06;99041.03;5063731;28;20055;-69
2022/06/15 01:51:31;;;;;;;17.10;4.45;;;;;;;12.56;75.98;99044.25;5082002;28;20054;-69
2022/06/15 01:54:01;;;;;;;15.63;4.13;;;;;;;12.60;75.72;99050.75;5061940;28;20468;-73
2022/06/15 01:56:31;;;;;;;15.65;3.95;;;;;;;12.65;74.79;99038.06;5061995;28;20087;-73
2022/06/15 01:59:02;;;;;;;16.92;4.55;;;;;;;12.65;74.89;99038.06;5061381;28;20520;-73
2022/06/15 02:01:39;;;;;;;15.32;4.00;;;;;;;12.67;74.66;99050.34;5062335;28;20044;-74
2022/06/15 02:04:11;;;;;;;17.33;4.07;;;;;;;12.65;74.02;99040.81;5059152;28;20045;-73
2022/06/15 02:06:45;;;;;;;11.85;4.30;;;;;;;12.67;74.13;99041.31;5043277;28;20093;-73
2022/06/15 02:09:18;;;;;;;13.68;3.75;;;;;;;12.68;73.45;99042.94;5062340;28;20401;-72
2022/06/15 02:11:48;;;;;;;15.77;4.78;;;;;;;12.70;73.45;99037.94;5044636;28;20113;-73
2022/06/15 02:14:20;;;;;;;12.30;3.38;;;;;;;12.73;73.27;99045.56;5044723;28;20045;-74
2022/06/15 02:16:53;;;;;;;20.10;4.10;;;;;;;12.72;72.81;99055.72;5068588;28;20193;-74
2022/06/15 02:19:31;;;;;;;13.13;4.22;;;;;;;12.71;72.99;99040.38;5062593;28;20055;-73
2022/06/15 02:22:00;;;;;;;9.93;3.80;;;;;;;12.73;72.67;99048.31;5033300;28;20049;-73
2022/06/15 02:24:30;;;;;;;18.80;4.40;;;;;;;12.75;72.52;99054.28;5070393;28;20051;-73
2022/06/15 02:26:57;;;;;;;13.70;3.53;;;;;;;12.77;72.55;99054.78;5084329;28;20502;-74
2022/06/15 02:29:27;;;;;;;15.85;3.58;;;;;;;12.79;71.86;99059.97;5084260;28;20044;-73
2022/06/15 02:31:56;;;;;;;13.27;3.70;;;;;;;12.75;71.63;99040.56;5085462;28;20548;-73
2022/06/15 02:34:24;;;;;;;19.48;4.93;;;;;;;12.75;71.54;99046.88;5082684;28;20411;-73
2022/06/15 02:36:50;;;;;;;12.77;3.85;;;;;;;12.74;71.26;99047.19;5087448;28;20052;-73
2022/06/15 02:39:20;;;;;;;11.68;3.45;;;;;;;12.70;71.05;99043.44;5085245;28;20055;-74
2022/06/15 02:41:56;;;;;;;11.13;3.42;;;;;;;12.72;70.65;99050.25;5085975;28;20051;-73
2022/06/15 02:44:26;;;;;;;13.43;3.50;;;;;;;12.75;71.01;99052.38;5071030;28;20250;-74
2022/06/15 02:46:53;;;;;;;11.73;4.45;;;;;;;12.80;70.29;99034.16;5083020;28;20047;-73
2022/06/15 02:49:22;;;;;;;12.77;3.22;;;;;;;12.84;70.27;99048.88;5067762;28;20176;-73
2022/06/15 02:51:54;;;;;;;9.95;3.58;;;;;;;12.84;70.36;99046.13;5080484;28;20047;-73
2022/06/15 02:54:25;;;;;;;14.52;3.60;;;;;;;12.88;70.20;99052.66;5066588;28;20582;-73
2022/06/15 02:56:57;;;;;;;15.40;3.70;;;;;;;12.89;70.07;99060.56;5072787;28;20132;-74
2022/06/15 02:59:23;;;;;;;15.25;3.55;;;;;;;12.89;69.44;99048.78;5063750;28;20633;-74
2022/06/15 03:01:51;;;;;;;23.23;3.63;;;;;;;12.89;69.52;99068.78;5046533;28;20118;-73
2022/06/15 03:04:17;;;;;;;20.10;3.47;;;;;;;12.89;69.65;99065.25;5063297;28;20041;-74
2022/06/15 03:06:45;;;;;;;14.98;3.40;;;;;;;12.85;69.15;99056.81;5049803;28;20036;-73
2022/06/15 03:09:15;;;;;;;15.00;3.33;;;;;;;12.86;69.09;99052.13;5063520;28;20118;-74
2022/06/15 03:11:50;;;;;;;10.77;2.90;;;;;;;12.89;69.12;99048.78;5063692;28;20057;-74
2022/06/15 03:14:27;;;;;;;18.10;4.10;;;;;;;12.89;69.01;99044.09;5032821;28;20415;-74
2022/06/15 03:16:54;;;;;;;15.07;3.42;;;;;;;12.86;69.29;99039.25;5066501;28;20044;-74
2022/06/15 03:19:22;;;;;;;9.90;3.70;;;;;;;12.96;68.52;99046.41;5065355;28;20051;-73
2022/06/15 03:21:57;;;;;;;10.27;3.40;;;;;;;12.99;69.12;99045.00;5034850;28;20056;-74
2022/06/15 03:24:22;;;;;;;;;;;;;;;13.03;68.50;99051.47;5066016;28;20052;-74
2022/06/15 03:26:50;;;;;;;11.65;3.90;;;;;;;13.05;68.71;99049.25;5065994;28;20292;-74
2022/06/15 03:29:20;;;;;;;19.23;3.45;;;;;;;12.77;67.71;99013.66;5064789;28;20139;-73
2022/06/15 03:31:48;;;;;;;14.48;3.40;;;;;;;12.88;67.92;99049.91;5062909;28;20131;-74
2022/06/15 03:34:15;;;;;;;11.93;3.42;;;;;;;12.88;68.37;99047.97;5047306;28;20044;-74
2022/06/15 03:36:41;;;;;;;13.77;3.58;;;;;;;12.84;68.18;99049.72;5065843;28;20098;-73
2022/06/15 03:39:09;;;;;;;16.27;4.47;;;;;;;12.84;68.76;99079.88;5063411;28;20040;-74
2022/06/15 03:41:39;;;;;;;11.13;3.70;;;;;;;12.90;68.44;99058.63;5063367;28;20109;-74
2022/06/15 03:44:05;;;;;;;10.65;3.20;;;;;;;12.89;69.08;99065.25;5062779;28;20060;-73
2022/06/15 03:46:33;;;;;;;11.65;3.58;;;;;;;13.05;68.25;99072.00;5061936;28;20048;-74
2022/06/15 03:49:10;;;;;;;25.67;4.63;;;;;;;13.19;68.03;99068.44;5063474;28;20061;-74
2022/06/15 03:51:36;;;;;;;18.60;3.63;;;;;;;13.19;67.89;99060.19;5064168;28;20061;-74
2022/06/15 03:54:03;;;;;;;10.68;3.30;;;;;;;13.32;67.86;99056.56;5064471;28;20057;-75
2022/06/15 03:56:43;;;;;;;13.52;3.78;;;;;;;13.36;68.07;99061.44;5063072;28;20419;-75
2022/06/15 03:59:13;;;;;;;18.88;3.65;;;;;;;13.40;67.55;99057.75;5062942;28;20055;-74
2022/06/15 04:01:40;;;;;;;15.35;3.63;;;;;;;13.35;67.75;99057.88;5065497;28;20049;-74
2022/06/15 04:04:07;;;;;;;15.75;3.53;;;;;;;13.51;67.14;99063.03;5064859;28;20083;-75
2022/06/15 04:06:33;;;;;;;15.32;2.92;;;;;;;13.77;66.04;99062.38;5064399;28;20052;-75
2022/06/15 04:09:00;;;;;;;12.18;3.10;;;;;;;13.79;65.12;99065.63;5062334;28;20534;-74
2022/06/15 04:14:27;;;;;;;15.38;2.97;;;;;;;13.46;66.25;99064.78;5045140;28;20558;-74
2022/06/15 04:17:10;;;;;;;10.63;2.50;;;;;;;13.55;65.54;99058.53;5061449;28;20051;-74
2022/06/15 04:22:52;;;;;;;20.88;3.30;;;;;;;13.71;64.59;99056.22;5064545;28;20048;-70
2022/06/15 04:25:18;;;;;;;9.35;2.60;;;;;;;13.79;64.43;99063.69;5063053;28;20068;-69
2022/06/15 04:27:45;;;;;;;12.23;2.90;;;;;;;13.88;64.03;99071.97;5062333;28;20088;-69
2022/06/15 04:30:15;;;;;;;8.40;2.58;;;;;;;13.80;63.24;99059.81;5046046;28;20305;-69
2022/06/15 04:32:49;;;;;;;17.40;2.83;;;;;;;13.67;63.21;99078.00;5061543;28;20052;-70
2022/06/15 04:35:15;;;;;;;8.20;2.40;;;;;;;13.63;62.87;99085.25;5062351;28;20048;-69
2022/06/15 04:37:42;;;;;;;9.10;1.95;;;;;;;13.45;62.97;99067.81;5044609;28;20094;-69
2022/06/15 04:40:22;;;;;;;14.40;3.25;;;;;;;13.32;63.87;99067.53;5048196;28;20049;-69
2022/06/15 04:42:49;;;;;;;15.77;2.78;;;;;;;13.39;63.91;99080.84;5064558;28;20044;-69
2022/06/15 04:45:18;;;;;;;9.60;2.47;;;;;;;13.41;63.16;99080.53;5065512;28;20105;-69
2022/06/15 04:47:58;;;;;;;9.13;2.10;;;;;;;13.46;63.43;99074.94;5050376;28;20047;-74
2022/06/15 04:50:25;;;;;;;16.10;2.80;;;;;;;13.42;62.94;99071.97;5083833;28;20039;-69
2022/06/15 04:52:53;;;;;;;9.43;2.10;;;;;;;13.54;63.15;99081.63;5056813;28;20395;-69
2022/06/15 04:55:21;;;;;;;10.20;2.00;;;;;;;13.56;61.87;99071.13;5051894;28;20063;-69
2022/06/15 04:57:50;;;;;;;9.07;2.05;;;;;;;13.52;61.83;99070.97;5074135;28;20052;-69
2022/06/15 05:00:19;;;;;;;10.20;1.77;;;;;;;13.58;61.10;99060.63;5048477;28;20056;-69
2022/06/15 05:02:46;;;;;;;9.93;1.90;;;;;;;13.71;61.26;99075.44;5052496;28;20392;-69
2022/06/15 05:05:14;;;;;;;6.28;1.80;;;;;;;13.79;61.09;99068.38;5062814;28;20044;-69
2022/06/15 05:07:42;;;;;;;9.35;2.00;;;;;;;13.76;60.43;99075.31;5062053;28;20533;-69
2022/06/15 05:10:14;;;;;;;10.15;1.95;;;;;;;13.60;60.96;99080.38;5082967;28;20044;-69
2022/06/15 05:12:40;;;;;;;7.28;1.90;;;;;;;13.66;61.06;99081.03;5082579;28;20055;-69
2022/06/15 05:15:08;;;;;;;7.93;1.77;;;;;;;13.80;60.63;99056.25;5049385;28;20505;-69
2022/06/15 05:17:37;;;;;;;5.72;2.00;;;;;;;13.73;60.98;99073.97;5077217;28;20044;-69
2022/06/15 05:20:04;;;;;;;9.40;2.05;;;;;;;13.75;60.92;99074.50;5066855;28;20043;-69
2022/06/15 05:22:32;;;;;;;8.00;2.13;;;;;;;13.68;60.99;99071.38;5053884;28;20132;-70
2022/06/15 05:25:05;;;;;;;7.55;2.15;;;;;;;13.90;60.92;99076.03;5042669;28;20122;-69
2022/06/15 05:27:33;;;;;;;12.10;2.20;;;;;;;13.92;60.61;99075.72;5049150;28;20045;-69
2022/06/15 05:29:59;;;;;;;8.77;2.23;;;;;;;13.88;60.60;99080.22;5061509;28;20045;-69
2022/06/15 05:32:26;;;;;;;8.47;2.37;;;;;;;13.62;60.63;99069.91;5046119;28;20214;-69
2022/06/15 05:34:55;;;;;;;10.05;1.70;;;;;;;13.52;61.06;99086.63;5025336;28;20127;-69
2022/06/15 05:37:23;;;;;;;6.60;1.80;;;;;;;13.52;60.84;99076.47;5043836;28;20512;-75
2022/06/15 05:39:50;;;;;;;7.38;2.08;;;;;;;13.63;60.72;99089.91;5063710;28;20045;-74
2022/06/15 05:42:17;;;;;;;;;;;;;;;13.59;60.07;99087.00;5047151;28;20094;-74
2022/06/15 05:44:51;;;;;;;9.43;2.15;;;;;;;13.68;60.84;99109.03;5032055;28;20388;-69
2022/06/15 05:47:17;;;;;;;10.35;1.92;;;;;;;13.57;60.20;99128.50;5066882;28;20089;-69
2022/06/15 05:50:01;;;;;;;14.98;2.28;;;;;;;13.51;61.10;99096.81;5082228;28;20044;-73
2022/06/15 06:04:40;;;;;;;8.18;1.90;;;;;;;14.87;56.66;99092.94;5078123;27;21315;-69
2022/06/15 06:07:06;;;;;;;;;;;;;;;14.67;56.63;99101.72;5063067;28;20048;-76
2022/06/15 06:09:32;;;;;;;5.32;1.60;;;;;;;14.51;57.01;99098.63;5045556;28;19930;-75
2022/06/15 06:11:58;;;;;;;4.20;1.70;;;;;;;14.48;57.90;99088.25;5080790;28;20040;-75
2022/06/15 06:28:02;;;;;;;15.13;2.08;;;;;;;14.68;57.99;99090.41;5071911;27;20412;-76
2022/06/15 06:30:28;;;;;;;7.70;2.05;;;;;;;14.79;57.83;99107.47;5051353;28;20052;-76
2022/06/15 06:32:55;;;;;;;8.68;1.75;;;;;;;15.06;56.21;99074.47;5064276;28;20410;-77
2022/06/15 06:35:21;;;;;;;17.38;2.47;;;;;;;15.21;55.89;99120.00;5061848;28;20102;-75
2022/06/15 06:37:48;;;;;;;8.52;2.15;;;;;;;15.09;55.50;99104.94;5055336;28;20043;-76
2022/06/15 06:40:16;;;;;;;13.13;1.92;;;;;;;14.67;56.59;99054.97;5058638;28;20435;-76
2022/06/15 06:42:42;;;;;;;8.90;2.17;;;;;;;14.83;56.30;99097.47;5056757;28;20062;-76
2022/06/15 06:45:12;;;;;;;9.57;1.60;;;;;;;14.68;55.68;99125.38;5043582;28;20071;-75
2022/06/15 06:47:38;;;;;;;2.22;1.30;;;;;;;14.77;54.83;99095.97;5041619;28;20067;-75
2022/06/15 06:50:05;;;;;;;10.18;1.80;;;;;;;14.81;55.33;99096.94;5057243;28;20135;-75
2022/06/15 06:52:31;;;;;;;14.52;2.22;;;;;;;15.00;55.04;99096.66;5061869;28;20063;-76
2022/06/15 06:54:58;;;;;;;11.60;1.70;;;;;;;14.96;54.95;99092.94;5061647;28;20056;-76
2022/06/15 06:57:24;;;;;;;32.97;2.00;;;;;;;14.94;54.87;99095.22;5041719;28;20044;-75
2022/06/15 06:59:50;;;;;;;6.45;1.48;;;;;;;14.85;54.27;99089.69;5057159;28;20115;-76
2022/06/15 07:02:18;;;;;;;3.53;1.20;;;;;;;14.80;54.67;99109.09;5062681;28;20140;-75
2022/06/15 07:04:46;;;;;;;6.30;1.48;;;;;;;14.83;54.46;99169.00;5045088;28;20041;-76
2022/06/15 07:07:13;;;;;;;10.00;1.75;;;;;;;15.11;53.62;99110.91;5048459;28;20139;-77
2022/06/15 07:09:39;;;;;;;13.98;2.25;;;;;;;15.52;53.44;99108.81;5055376;28;20044;-75
2022/06/15 07:12:05;;;;;;;4.35;1.58;;;;;;;15.66;52.60;99118.88;5054703;28;20041;-76
2022/06/15 07:14:32;;;;;;;9.70;1.60;;;;;;;15.78;52.50;99116.28;5030830;28;20063;-70
2022/06/15 07:16:58;;;;;;;9.48;1.63;;;;;;;15.88;52.43;99112.34;5057809;28;20407;-70
2022/06/15 07:19:25;;;;;;;6.50;1.50;;;;;;;15.76;52.74;99132.31;5057646;28;20039;-70
2022/06/15 07:21:52;;;;;;;6.85;1.55;;;;;;;15.55;53.10;99119.22;5060457;28;20071;-69
2022/06/15 07:24:18;;;;;;;4.63;1.30;;;;;;;15.44;52.44;99120.69;5058486;28;20359;-68
2022/06/15 07:26:47;;;;;;;6.25;1.30;;;;;;;15.58;51.72;99109.47;5055152;28;20065;-69
2022/06/15 07:29:16;;;;;;;9.05;1.60;;;;;;;15.86;51.38;99122.91;4689249;28;10000165;-75
2022/06/15 07:31:45;;;;;;;3.10;1.30;;;;;;;15.92;51.75;99123.56;5034982;28;20044;-76
2022/06/15 07:34:13;;;;;;;5.68;1.67;;;;;;;16.05;51.41;99121.75;5053946;28;20205;-75
2022/06/15 07:36:46;;;;;;;8.30;1.50;;;;;;;16.16;51.93;99132.13;5003195;28;20055;-76
2022/06/15 07:39:15;;;;;;;13.20;2.20;;;;;;;16.75;50.20;99128.97;5042340;28;20053;-76
2022/06/15 07:41:43;;;;;;;9.98;1.88;;;;;;;16.56;50.20;99144.81;5035760;28;20423;-70
2022/06/15 07:44:09;;;;;;;7.70;1.63;;;;;;;16.34;51.09;99128.50;5040292;28;20164;-70
2022/06/15 07:46:36;;;;;;;10.80;1.60;;;;;;;16.51;50.80;99128.41;5034780;28;20151;-76
2022/06/15 07:51:52;;;;;;;4.38;1.60;;;;;;;16.66;50.72;99126.25;5031194;28;20368;-69
2022/06/15 07:54:19;;;;;;;3.92;1.40;;;;;;;16.63;49.64;99137.94;5041806;28;20610;-75
2022/06/15 07:56:46;;;;;;;6.13;1.70;;;;;;;16.62;50.34;99128.06;5039534;28;21269;-75
2022/06/15 07:59:13;;;;;;;7.25;1.60;;;;;;;16.62;49.51;99126.09;5040540;28;20545;-77
2022/06/15 08:01:40;;;;;;;11.23;1.65;;;;;;;16.41;50.27;99131.56;5019416;28;20617;-75
2022/06/15 08:04:06;;;;;;;5.78;1.38;;;;;;;16.52;50.26;99120.97;5029698;28;20048;-76
2022/06/15 08:06:34;;;;;;;10.63;1.90;;;;;;;17.00;49.67;99132.75;5044992;28;20041;-69
2022/06/15 08:09:02;;;;;;;4.57;1.38;;;;;;;17.26;48.04;99162.97;5039859;28;20045;-76
2022/06/15 08:11:28;;;;;;;7.75;1.50;;;;;;;17.17;48.17;99129.06;5043357;28;20072;-76
2022/06/15 08:13:55;;;;;;;14.68;1.60;;;;;;;17.18;48.51;99166.59;5041389;28;20053;-77
2022/06/15 08:16:21;;;;;;;6.45;1.60;;;;;;;17.62;47.94;99146.91;5039181;28;20045;-70
2022/06/15 08:18:54;;;;;;;7.25;1.63;;;;;;;18.00;46.24;99145.94;5040713;28;20201;-69
2022/06/15 08:21:24;;;;;;;7.80;1.67;;;;;;;17.57;46.46;99145.19;5040558;28;20060;-70
2022/06/15 08:23:53;;;;;;;8.35;1.70;;;;;;;17.23;47.71;99155.34;5042569;28;20049;-68
2022/06/15 08:26:23;;;;;;;8.02;1.30;;;;;;;17.26;47.76;99140.06;5037239;28;20429;-69
2022/06/15 08:28:53;;;;;;;6.30;1.55;;;;;;;16.96;48.08;99151.09;5037735;28;20076;-69
2022/06/15 08:31:19;;;;;;;7.97;1.60;;;;;;;16.88;48.73;99188.66;5037389;28;20498;-75
2022/06/15 08:33:46;;;;;;;2.88;1.20;;;;;;;16.73;49.21;99135.63;5029041;28;20045;-75
2022/06/15 08:36:13;;;;;;;7.20;1.38;;;;;;;16.59;49.14;99160.69;5041571;28;20051;-76
2022/06/15 08:38:40;;;;;;;18.88;1.52;;;;;;;16.43;50.22;99154.09;5043104;28;20052;-75
2022/06/15 08:41:18;;;;;;;4.97;1.40;;;;;;;16.39;50.89;99164.16;5021935;28;20041;-75
2022/06/15 08:43:57;;;;;;;12.05;2.00;;;;;;;16.62;50.60;99173.00;5042582;28;20045;-76
2022/06/15 08:46:41;;;;;;;7.03;1.65;;;;;;;16.69;50.98;99165.03;5040996;28;20056;-76
2022/06/15 08:49:21;;;;;;;12.40;1.95;;;;;;;16.93;49.59;99162.81;5039940;28;20049;-75
2022/06/15 08:51:55;;;;;;;7.25;1.50;;;;;;;17.70;47.70;99154.34;5040180;28;20098;-76
2022/06/15 08:54:26;;;;;;;6.28;1.60;;;;;;;18.34;46.22;99184.69;5039835;28;20052;-76
2022/06/15 08:56:59;;;;;;;9.05;1.70;;;;;;;19.04;44.67;99176.69;5041380;28;20064;-76
2022/06/15 08:59:34;;;;;;;4.38;1.77;;;;;;;18.87;44.06;99186.81;5038377;28;20472;-75
2022/06/15 09:02:05;;;;;;;4.93;1.58;;;;;;;19.21;43.42;99147.94;5040956;28;20067;-75
2022/06/15 09:04:39;;;;;;;12.48;1.70;;;;;;;19.50;43.78;99145.97;5042164;28;20049;-76
2022/06/15 09:07:22;;;;;;;5.80;1.90;;;;;;;19.35;43.33;99145.56;5040813;28;20053;-76
2022/06/15 09:10:06;;;;;;;7.13;1.67;;;;;;;19.03;44.54;99156.47;5043337;28;20041;-76
2022/06/15 09:12:52;;;;;;;7.32;1.73;;;;;;;18.95;42.67;99158.16;5045493;28;20044;-75
2022/06/15 09:15:29;;;;;;;6.50;1.50;;;;;;;18.42;44.31;99175.44;5026686;28;20049;-75
2022/06/15 09:17:59;;;;;;;12.13;1.88;;;;;;;18.50;44.11;99161.88;5051850;28;20048;-69
2022/06/15 09:20:30;;;;;;;6.07;1.67;;;;;;;19.00;42.90;99148.84;5039891;28;20144;-69
2022/06/15 09:23:06;;;;;;;8.45;1.63;;;;;;;19.69;41.73;99159.22;5036421;28;20048;-69
2022/06/15 09:25:38;;;;;;;5.15;1.75;;;;;;;20.48;40.47;99163.38;5031487;28;20045;-69
2022/06/15 09:28:09;;;;;;;5.10;1.50;;;;;;;20.77;39.18;99147.41;5036984;28;20056;-76
2022/06/15 09:30:41;;;;;;;7.43;1.88;;;;;;;20.37;40.29;99160.31;5036079;28;20048;-76
2022/06/15 09:33:18;;;;;;;9.30;1.95;;;;;;;20.47;40.72;99161.75;5042848;28;20053;-75
2022/06/15 09:35:50;;;;;;;4.07;1.38;;;;;;;19.94;41.59;99170.25;5044738;28;20044;-76
2022/06/15 09:38:16;;;;;;;10.98;1.73;;;;;;;19.94;41.54;99184.13;5050595;28;20037;-69
2022/06/15 09:40:50;;;;;;;11.85;1.60;;;;;;;20.59;39.85;99190.56;5029779;28;20067;-70
2022/06/15 09:43:27;;;;;;;4.60;1.52;;;;;;;20.20;40.12;99178.09;5040822;28;20408;-71
2022/06/15 09:46:04;;;;;;;8.93;1.50;;;;;;;19.38;42.72;99189.22;5039177;28;20061;-69
2022/06/15 09:48:40;;;;;;;8.77;1.67;;;;;;;18.75;43.65;99195.94;5043184;28;20411;-69
2022/06/15 09:51:12;;;;;;;4.78;1.58;;;;;;;18.31;45.22;99193.63;5040008;28;20377;-70
2022/06/15 09:53:51;;;;;;;6.65;1.85;;;;;;;18.06;45.82;99196.34;5039105;28;20045;-69
2022/06/15 09:56:20;;;;;;;5.63;1.65;;;;;;;18.50;45.13;99173.72;5042452;28;20593;-76
2022/06/15 09:58:51;;;;;;;9.80;1.70;;;;;;;18.30;45.15;99160.78;5056258;28;20063;-76
2022/06/15 10:01:20;;;;;;;10.50;1.73;;;;;;;18.40;43.93;99177.75;5040009;28;20052;-76
2022/06/15 10:03:51;;;;;;;5.30;1.55;;;;;;;18.25;44.69;99148.78;5033984;28;20094;-69
2022/06/15 10:06:23;;;;;;;6.47;1.90;;;;;;;18.45;44.37;99156.53;5034041;28;20049;-76
2022/06/15 10:08:49;;;;;;;5.47;1.40;;;;;;;18.36;44.72;99170.47;5034666;28;20147;-76
2022/06/15 10:11:21;;;;;;;7.60;1.70;;;;;;;19.23;43.92;99185.19;5039446;28;20546;-70
2022/06/15 10:13:47;;;;;;;8.43;2.03;;;;;;;20.43;40.99;99190.59;5036550;28;20049;-69
2022/06/15 10:16:26;;;;;;;7.68;1.70;;;;;;;20.10;41.45;99171.09;5045529;28;20099;-70
2022/06/15 10:18:56;;;;;;;10.80;2.13;;;;;;;19.61;42.56;99174.84;5039500;28;20052;-68
2022/06/15 10:21:25;;;;;;;8.05;2.05;;;;;;;19.40;42.69;99184.13;5037378;28;20147;-68
2022/06/15 10:23:56;;;;;;;8.40;2.00;;;;;;;19.45;42.67;99193.38;5039431;28;20048;-68
2022/06/15 10:26:27;;;;;;;4.90;1.40;;;;;;;19.14;42.76;99190.06;5045057;28;20060;-69
2022/06/15 10:28:54;;;;;;;6.28;1.60;;;;;;;18.71;42.96;99208.81;5045101;28;20049;-68
2022/06/15 10:31:30;;;;;;;9.27;1.43;;;;;;;18.45;44.54;99193.34;5060235;28;20040;-68
2022/06/15 10:33:57;;;;;;;6.80;1.58;;;;;;;18.30;44.65;99192.03;5038435;28;20136;-68
2022/06/15 10:36:29;;;;;;;6.18;1.60;;;;;;;18.28;44.96;99189.63;5043867;28;20047;-76
2022/06/15 10:39:02;;;;;;;9.05;1.50;;;;;;;18.99;43.65;99194.34;5039808;28;20185;-68
2022/06/15 10:41:46;;;;;;;9.68;2.20;;;;;;;19.42;42.73;99198.44;5049971;28;20045;-68
2022/06/15 10:44:14;;;;;;;8.10;1.80;;;;;;;19.68;42.07;99207.50;5041324;28;20049;-69
2022/06/15 10:46:54;;;;;;;5.53;1.50;;;;;;;20.12;41.26;99196.53;5044740;28;20076;-70
2022/06/15 10:49:22;;;;;;;9.15;1.95;;;;;;;19.94;41.82;99192.44;5028695;28;20045;-69
2022/06/15 10:51:49;;;;;;;10.10;1.60;;;;;;;19.46;41.81;99217.16;5024651;28;20033;-69
2022/06/15 10:54:28;;;;;;;11.43;2.00;;;;;;;20.53;40.29;99187.28;5033607;28;20099;-69
2022/06/15 11:02:29;;;;;;;7.90;1.80;;;;;;;22.90;35.97;99202.19;5030652;28;20490;-69
2022/06/15 11:04:59;;;;;;;10.57;1.90;;;;;;;23.13;35.58;99202.16;5042165;28;20047;-77
2022/06/15 11:07:31;;;;;;;10.95;2.13;;;;;;;23.31;34.88;99212.81;5031142;28;20057;-77
2022/06/15 11:10:09;;;;;;;9.90;2.05;;;;;;;23.61;34.63;99212.84;5030504;28;20052;-78
2022/06/15 11:12:43;;;;;;;14.45;2.30;;;;;;;23.47;33.57;99226.59;5045800;28;20671;-76
2022/06/15 11:18:01;;;;;;;9.65;2.10;;;;;;;23.20;34.81;99207.06;5045810;28;20049;-76
2022/06/15 11:18:25;;;;;;;11.10;1.40;;;;;;;24.10;33.48;99215.06;5047237;28;20139;-77
2022/06/15 11:20:56;;;;;;;10.00;2.30;;;;;;;24.01;33.60;99204.97;5026972;28;20037;-76
2022/06/15 11:23:27;;;;;;;13.85;2.20;;;;;;;24.49;32.67;99212.69;5060256;28;20277;-77
2022/06/15 11:25:56;;;;;;;15.18;3.38;;;;;;;24.03;33.18;99233.34;5024565;28;20502;-76
2022/06/15 11:28:28;;;;;;;6.72;2.28;;;;;;;24.23;32.28;99235.97;5010968;28;20092;-77
2022/06/15 11:30:58;;;;;;;6.35;2.13;;;;;;;23.94;32.80;99191.75;5037160;28;20057;-76
2022/06/15 11:33:33;;;;;;;10.30;2.17;;;;;;;22.70;35.23;99223.75;5047259;28;20523;-76
2022/06/15 11:36:09;;;;;;;11.43;1.67;;;;;;;21.08;37.63;99211.66;5036431;28;20231;-69
2022/06/15 11:38:45;;;;;;;6.18;1.90;;;;;;;19.89;40.25;99214.84;5046440;28;20052;-69
2022/06/15 11:41:21;;;;;;;12.63;1.60;;;;;;;19.35;42.15;99208.50;5044425;28;20068;-70
2022/06/15 11:43:50;;;;;;;15.90;2.22;;;;;;;19.19;42.89;99214.75;5043715;28;20052;-69
2022/06/15 11:46:31;;;;;;;12.20;2.10;;;;;;;18.83;42.93;99203.28;5045723;28;20713;-69
2022/06/15 11:49:11;;;;;;;6.93;1.65;;;;;;;18.66;43.82;99214.59;5047551;28;20535;-68
2022/06/15 11:51:54;;;;;;;8.00;1.52;;;;;;;18.53;44.23;99230.38;5022763;28;20072;-68
2022/06/15 11:54:34;;;;;;;11.38;2.22;;;;;;;18.36;44.32;99225.81;5039068;28;20210;-69
2022/06/15 12:00:48;;;;;;;5.43;1.67;;;;;;;18.03;45.27;99234.94;4995257;28;20468;-69
2022/06/15 12:03:32;;;;;;;12.60;1.70;;;;;;;17.88;45.80;99231.59;5013250;28;20117;-68
2022/06/15 12:06:05;;;;;;;3.28;1.35;;;;;;;17.95;45.92;99220.81;4990543;28;20052;-69
2022/06/15 12:08:42;;;;;;;13.00;1.88;;;;;;;18.11;45.67;99225.75;4997230;28;20045;-76
2022/06/15 12:14:09;;;;;;;6.75;1.83;;;;;;;18.28;45.44;99242.19;5010750;28;20060;-68
2022/06/15 12:16:42;;;;;;;7.78;1.70;;;;;;;18.36;45.61;99228.59;4313408;28;10000636;-76
2022/06/15 12:19:15;;;;;;;7.57;1.92;;;;;;;18.63;44.59;99238.22;5017241;28;20053;-68
2022/06/15 12:21:50;;;;;;;15.27;2.20;;;;;;;20.85;40.24;99230.94;5018647;28;20050;-69
2022/06/15 12:24:21;;;;;;;10.07;2.30;;;;;;;23.41;35.69;99258.78;5012141;28;20080;-69
2022/06/15 12:27:01;;;;;;;8.18;2.30;;;;;;;23.68;34.44;99231.69;5037111;28;20061;-70
2022/06/15 12:29:40;;;;;;;7.90;2.50;;;;;;;23.50;35.09;99228.63;5043615;28;20064;-69
2022/06/15 12:32:32;;;;;;;10.43;2.63;;;;;;;24.00;33.13;99216.50;5033384;28;20047;-69